General Aviation Weather

Text Reports

Enter one or more of the following location identifiers separated by a space:

Zip Code, Four-Character ICAO or Three-Character IATA airport codes.

METAR - Aviation Routine Weather Report
KLXV - Leadville, Colorado
Updated at 10:53 AM GMT en Agosto 28, 2014 (4:53 AM MDT):
METAR KLXV 281053Z AUTO 02006KT 10SM -RA BKN028 OVC034 04/03 A3038 RMK AO2 RAE01B32 SLP161 P0000 T00440033
TAF - Terminal Area Forecast
KLXV - Leadville, Colorado
Updated at 10:53 AM GMT en Agosto 28, 2014 (4:53 AM MDT):
No TAF is currently available for this location.
Decoded:
No decoded TAF is available.
PIREP - Pilot Weather Report
KLXV - Leadville, Colorado
Updated at 10:53 AM GMT en Agosto 28, 2014 (4:53 AM MDT):
No PIREP is currently available for this location.
AIRMET - Airmens Meteorological Information
KLXV - Leadville, Colorado
Updated at 10:53 AM GMT en Agosto 28, 2014 (4:53 AM MDT):
No AIRMET is currently available for this location.
SIGMET - Significant Meteorological Information
KLXV - Leadville, Colorado
Updated at 10:53 AM GMT en Agosto 28, 2014 (4:53 AM MDT):
No SIGMET is currently available for this location.
NOTAM - Notice to Airmen
KLXV - Leadville, Colorado
Updated at 10:53 AM GMT en Agosto 28, 2014 (4:53 AM MDT):
No NOTAM is currently available for this location.
Forecast Area
KLXV - Leadville, Colorado
Updated at 10:53 AM GMT en Agosto 28, 2014 (4:53 AM MDT):
No NOTAM is currently available for this location.
Aviation Weather Maps